createdAt,value
2024-03-16T00:00:32.092Z,4.68
2024-03-16T00:03:01.075Z,5.75
2024-03-16T00:05:30.000Z,5.13
2024-03-16T00:07:58.382Z,5.50
2024-03-16T00:10:30.294Z,6.20
2024-03-16T00:12:59.025Z,6.25
2024-03-16T00:15:28.019Z,6.25
2024-03-16T00:17:56.440Z,4.85
2024-03-16T00:20:26.936Z,5.47
2024-03-16T00:22:55.334Z,5.20
2024-03-16T00:25:23.695Z,5.25
2024-03-16T00:27:53.955Z,5.75
2024-03-16T00:30:24.305Z,6.68
2024-03-16T00:32:52.960Z,5.18
2024-03-16T00:35:21.397Z,5.13
2024-03-16T00:37:50.347Z,5.30
2024-03-16T00:40:20.600Z,5.45
2024-03-16T00:42:49.296Z,5.43
2024-03-16T00:45:17.768Z,5.30
2024-03-16T00:47:46.210Z,4.30
2024-03-16T00:50:15.711Z,3.97
2024-03-16T00:52:44.229Z,4.20
2024-03-16T00:55:12.742Z,4.05
2024-03-16T00:57:41.047Z,4.20
2024-03-16T01:00:10.795Z,3.92
2024-03-16T01:02:40.663Z,4.40
2024-03-16T01:05:09.472Z,4.07
2024-03-16T01:07:37.456Z,3.80
2024-03-16T01:10:07.399Z,4.43
2024-03-16T01:12:35.603Z,3.85
2024-03-16T01:15:04.740Z,4.65
2024-03-16T01:17:33.046Z,3.28
2024-03-16T01:20:01.571Z,3.95
2024-03-16T01:22:29.998Z,4.25
2024-03-16T01:24:58.818Z,3.92
2024-03-16T01:27:27.353Z,3.92
2024-03-16T01:29:55.742Z,3.72
2024-03-16T01:32:24.475Z,3.88
2024-03-16T01:34:52.913Z,3.22
2024-03-16T01:37:21.299Z,3.70
2024-03-16T01:39:51.055Z,3.53
2024-03-16T01:42:19.707Z,4.10
2024-03-16T01:45:15.962Z,3.90
2024-03-16T01:47:48.406Z,4.28
2024-03-16T01:50:20.626Z,4.00
2024-03-16T01:52:49.708Z,4.47
2024-03-16T01:55:19.008Z,3.92
2024-03-16T01:57:47.479Z,4.78
2024-03-16T02:00:16.754Z,5.20
2024-03-16T02:02:45.555Z,4.20
2024-03-16T02:05:13.884Z,3.78
2024-03-16T02:07:46.136Z,4.20
2024-03-16T02:10:14.591Z,4.10
2024-03-16T02:12:43.484Z,3.72
2024-03-16T02:15:12.267Z,4.20
2024-03-16T02:17:40.589Z,4.40
2024-03-16T02:20:15.949Z,4.05
2024-03-16T02:22:44.941Z,4.65
2024-03-16T02:25:14.106Z,5.50
2024-03-16T02:27:42.486Z,5.60
2024-03-16T02:30:12.005Z,5.35
2024-03-16T02:32:40.442Z,5.07
2024-03-16T02:35:09.303Z,5.75
2024-03-16T02:37:38.128Z,5.03
2024-03-16T02:40:07.411Z,4.38
2024-03-16T02:42:36.517Z,4.03
2024-03-16T02:45:07.322Z,4.20
2024-03-16T02:47:35.724Z,4.50
2024-03-16T02:50:05.219Z,5.03
2024-03-16T02:52:33.721Z,4.60
2024-03-16T02:55:02.384Z,4.70
2024-03-16T02:57:31.029Z,5.03
2024-03-16T02:59:59.385Z,3.67
2024-03-16T03:02:29.238Z,5.43
2024-03-16T03:04:57.560Z,4.45
2024-03-16T03:07:25.910Z,4.30
2024-03-16T03:09:54.286Z,4.70
2024-03-16T03:12:24.146Z,4.15
2024-03-16T03:14:52.677Z,3.95
2024-03-16T03:17:24.131Z,3.85
2024-03-16T03:19:52.570Z,4.53
2024-03-16T03:22:21.033Z,4.20
2024-03-16T03:24:49.353Z,4.47
2024-03-16T03:27:17.777Z,4.47
2024-03-16T03:29:47.365Z,4.18
2024-03-16T03:32:15.884Z,4.88
2024-03-16T03:34:44.216Z,4.43
2024-03-16T03:37:13.562Z,4.57
2024-03-16T03:39:42.380Z,4.03
2024-03-16T03:42:12.478Z,3.67
2024-03-16T03:44:51.254Z,3.88
2024-03-16T03:47:19.680Z,4.05
2024-03-16T03:49:52.192Z,4.68
2024-03-16T03:52:21.420Z,3.97
2024-03-16T03:54:50.145Z,4.55
2024-03-16T03:57:18.521Z,4.38
2024-03-16T03:59:46.820Z,4.20
2024-03-16T04:02:15.106Z,4.13
2024-03-16T04:04:43.424Z,4.22
2024-03-16T04:07:12.150Z,4.85
2024-03-16T04:09:45.811Z,4.03
2024-03-16T04:12:14.315Z,3.95
2024-03-16T04:14:42.700Z,3.95
2024-03-16T04:17:11.602Z,4.63
2024-03-16T04:19:40.417Z,3.97
2024-03-16T04:22:08.823Z,3.78
2024-03-16T04:24:37.918Z,4.00
2024-03-16T04:27:06.454Z,4.45
2024-03-16T04:29:34.805Z,3.90
2024-03-16T04:32:03.233Z,4.13
2024-03-16T04:34:31.604Z,3.88
2024-03-16T04:37:00.199Z,4.55
2024-03-16T04:39:28.861Z,3.83
2024-03-16T04:41:57.171Z,3.55
2024-03-16T04:44:25.500Z,4.40
2024-03-16T04:46:56.304Z,3.75
2024-03-16T04:49:24.665Z,4.18
2024-03-16T04:51:53.039Z,4.22
2024-03-16T04:54:21.400Z,4.57
2024-03-16T04:56:50.014Z,4.00
2024-03-16T04:59:18.320Z,4.47
2024-03-16T05:01:46.918Z,4.82
2024-03-16T05:04:15.319Z,4.70
2024-03-16T05:06:43.708Z,4.47
2024-03-16T05:09:13.891Z,5.22
2024-03-16T05:11:42.273Z,4.50
2024-03-16T05:14:10.724Z,5.00
2024-03-16T05:16:40.989Z,4.50
2024-03-16T05:19:09.529Z,4.53
2024-03-16T05:21:38.010Z,4.38
2024-03-16T05:24:06.608Z,4.00
2024-03-16T05:26:35.478Z,3.92
2024-03-16T05:29:04.236Z,6.10
2024-03-16T05:31:33.435Z,4.90
2024-03-16T05:34:02.033Z,4.55
2024-03-16T05:36:30.470Z,5.18
2024-03-16T05:38:58.788Z,4.20
2024-03-16T05:41:27.312Z,3.03
2024-03-16T05:43:55.800Z,3.40
2024-03-16T05:46:24.101Z,2.92
2024-03-16T05:48:52.505Z,2.85
2024-03-16T05:51:20.969Z,2.83
2024-03-16T05:53:49.388Z,3.20
2024-03-16T05:56:18.285Z,2.35
2024-03-16T05:58:47.269Z,2.20
2024-03-16T06:01:18.381Z,3.13
2024-03-16T06:06:14.674Z,1.90
2024-03-16T06:08:43.295Z,1.95
2024-03-16T06:11:11.797Z,2.35
2024-03-16T06:13:40.155Z,2.15
2024-03-16T06:16:08.565Z,2.22
2024-03-16T06:18:40.998Z,1.40
2024-03-16T06:21:11.109Z,2.03
2024-03-16T06:23:39.622Z,1.52
2024-03-16T06:26:08.039Z,1.42
2024-03-16T06:28:39.388Z,1.33
2024-03-16T06:31:12.281Z,1.52
2024-03-16T06:33:46.479Z,1.60
2024-03-16T06:36:14.932Z,1.70
2024-03-16T06:38:43.470Z,1.50
2024-03-16T06:41:11.820Z,1.60
2024-03-16T06:43:40.751Z,1.30
2024-03-16T06:46:11.695Z,1.70
2024-03-16T06:48:40.298Z,2.05
2024-03-16T06:51:08.671Z,1.52
2024-03-16T06:53:37.799Z,1.65
2024-03-16T06:56:08.082Z,1.60
2024-03-16T06:58:36.462Z,2.00
2024-03-16T07:01:05.599Z,2.05
2024-03-16T07:03:34.129Z,1.70
2024-03-16T07:06:03.587Z,1.80
2024-03-16T07:08:31.926Z,1.67
2024-03-16T07:11:00.311Z,1.83
2024-03-16T07:13:28.762Z,1.95
2024-03-16T07:15:57.132Z,1.83
2024-03-16T07:18:25.459Z,1.55
2024-03-16T07:20:54.344Z,1.65
2024-03-16T07:23:23.143Z,1.85
2024-03-16T07:25:52.567Z,1.70
2024-03-16T07:28:21.003Z,1.70
2024-03-16T07:30:55.800Z,1.42
2024-03-16T07:33:24.257Z,1.63
2024-03-16T07:36:00.959Z,1.48
2024-03-16T07:38:29.488Z,1.80
2024-03-16T07:40:58.033Z,1.30
2024-03-16T07:43:26.649Z,1.30
2024-03-16T07:45:55.129Z,1.27
2024-03-16T07:48:23.705Z,1.27
2024-03-16T07:50:52.031Z,1.42
2024-03-16T07:53:20.399Z,1.27
2024-03-16T07:55:50.489Z,1.65
2024-03-16T07:58:18.896Z,1.10
2024-03-16T08:00:47.929Z,1.30
2024-03-16T08:03:16.356Z,1.50
2024-03-16T08:05:45.299Z,1.50
2024-03-16T08:08:13.926Z,1.52
2024-03-16T08:10:42.318Z,1.75
2024-03-16T08:13:10.657Z,1.38
2024-03-16T08:15:39.414Z,1.65
2024-03-16T08:18:08.034Z,1.45
2024-03-16T08:20:37.776Z,1.38
2024-03-16T08:23:06.189Z,1.38
2024-03-16T08:25:36.995Z,1.55
2024-03-16T08:28:06.534Z,1.42
2024-03-16T08:30:34.981Z,2.17
2024-03-16T08:33:03.572Z,1.98
2024-03-16T08:35:33.274Z,1.75
2024-03-16T08:38:06.115Z,2.15
2024-03-16T08:40:34.614Z,1.38
2024-03-16T08:43:03.900Z,1.30
2024-03-16T08:45:32.637Z,2.47
2024-03-16T08:48:02.196Z,1.75
2024-03-16T08:50:30.693Z,1.77
2024-03-16T08:52:59.345Z,1.60
2024-03-16T08:55:27.833Z,1.20
2024-03-16T08:57:56.347Z,1.67
2024-03-16T09:00:26.249Z,1.30
2024-03-16T09:02:54.676Z,1.85
2024-03-16T09:05:23.121Z,1.50
2024-03-16T09:07:51.692Z,1.23
2024-03-16T09:10:21.501Z,1.08
2024-03-16T09:12:50.552Z,1.05
2024-03-16T09:15:20.769Z,1.05
2024-03-16T09:17:49.096Z,1.17
2024-03-16T09:20:17.469Z,0.90
2024-03-16T09:22:46.025Z,1.20
2024-03-16T09:25:14.775Z,1.83
2024-03-16T09:27:43.265Z,1.40
2024-03-16T09:30:12.920Z,1.02
2024-03-16T09:32:41.559Z,1.05
2024-03-16T09:35:13.028Z,1.02
2024-03-16T09:37:42.468Z,1.48
2024-03-16T09:40:12.436Z,0.98
2024-03-16T09:42:41.721Z,1.10
